Time,TemperatureF,DewpointF,PressureIn,WindDirection,WindDirectionDegrees,WindSpeedMPH,WindSpeedGustMPH,Humidity,HourlyPrecipIn,Conditions,Clouds,dailyrainin,SoftwareType,DateUTC
2013-01-24 00:06:00,33.3,-1.5,29.97,ESE,122,6.0,13.0,22,0.00,,,-99.99,FreeWX 2.04,2013-01-24 07:06:00,
2013-01-24 00:16:00,31.8,0.1,29.97,SE,137,6.0,10.1,25,0.00,,,-99.99,FreeWX 2.04,2013-01-24 07:16:00,
2013-01-24 00:26:00,34.0,-0.8,29.97,ESE,120,6.0,9.6,22,0.00,,,-99.99,FreeWX 2.04,2013-01-24 07:26:00,
2013-01-24 00:36:00,33.4,-1.3,29.97,SE,127,6.0,8.7,22,0.00,,,-99.99,FreeWX 2.04,2013-01-24 07:36:00,
2013-01-24 00:46:00,33.6,-1.1,29.97,ESE,120,6.0,10.5,22,0.00,,,-99.99,FreeWX 2.04,2013-01-24 07:46:00,
2013-01-24 00:56:00,33.8,-0.9,29.97,ESE,117,6.0,9.6,22,0.00,,,-99.99,FreeWX 2.04,2013-01-24 07:56:00,
2013-01-24 01:06:00,32.5,-1.1,29.97,SE,142,6.0,8.3,23,0.00,,,-99.99,FreeWX 2.04,2013-01-24 08:06:00,
2013-01-24 01:16:00,32.5,-1.1,29.97,ESE,119,5.0,9.2,23,0.00,,,-99.99,FreeWX 2.04,2013-01-24 08:16:00,
2013-01-24 01:26:00,32.5,0.7,29.97,ESE,111,4.0,7.8,25,0.00,,,-99.99,FreeWX 2.04,2013-01-24 08:26:00,
2013-01-24 01:36:00,32.2,0.3,29.97,ESE,106,5.0,7.8,25,0.00,,,-99.99,FreeWX 2.04,2013-01-24 08:36:00,
2013-01-24 01:46:00,31.6,0.0,29.97,ESE,106,4.0,7.4,25,0.00,,,-99.99,FreeWX 2.04,2013-01-24 08:46:00,
2013-01-24 01:56:00,31.5,-0.2,29.97,East,94,4.0,9.2,25,0.00,,,-99.99,FreeWX 2.04,2013-01-24 08:56:00,
2013-01-24 02:06:00,32.2,0.3,29.97,East,100,6.0,8.7,25,0.00,,,-99.99,FreeWX 2.04,2013-01-24 09:06:00,
2013-01-24 02:16:00,32.4,0.5,29.97,ESE,114,6.0,8.7,25,0.00,,,-99.99,FreeWX 2.04,2013-01-24 09:16:00,
2013-01-24 02:26:00,32.2,0.3,29.97,ESE,106,6.0,9.6,25,0.00,,,-99.99,FreeWX 2.04,2013-01-24 09:26:00,
2013-01-24 02:36:00,32.5,0.7,29.97,ESE,110,6.0,9.2,25,0.00,,,-99.99,FreeWX 2.04,2013-01-24 09:36:00,
2013-01-24 02:46:00,32.4,0.5,29.97,ESE,113,6.0,10.1,25,0.00,,,-99.99,FreeWX 2.04,2013-01-24 09:46:00,
2013-01-24 02:56:00,32.4,3.0,29.97,East,93,6.0,12.5,28,0.00,,,-99.99,FreeWX 2.04,2013-01-24 09:56:00,
2013-01-24 03:07:00,32.2,2.8,29.97,East,100,6.0,11.6,28,0.00,,,-99.99,FreeWX 2.04,2013-01-24 10:07:00,
2013-01-24 03:17:00,32.5,3.0,29.97,ESE,120,7.0,13.0,28,0.00,,,-99.99,FreeWX 2.04,2013-01-24 10:17:00,
2013-01-24 03:27:00,32.4,3.0,29.97,East,99,4.0,10.5,28,0.00,,,-99.99,FreeWX 2.04,2013-01-24 10:27:00,
2013-01-24 03:37:00,32.4,4.5,29.97,East,97,4.0,8.7,30,0.00,,,-99.99,FreeWX 2.04,2013-01-24 10:37:00,
2013-01-24 03:47:00,32.5,4.6,29.97,East,99,4.0,6.9,30,0.00,,,-99.99,FreeWX 2.04,2013-01-24 10:47:00,
2013-01-24 03:57:00,32.7,4.8,29.97,ESE,115,4.0,8.7,30,0.00,,,-99.99,FreeWX 2.04,2013-01-24 10:57:00,
2013-01-24 04:07:00,33.6,5.5,29.97,ESE,104,4.0,7.8,30,0.00,,,-99.99,FreeWX 2.04,2013-01-24 11:07:00,
2013-01-24 04:17:00,33.3,5.2,29.97,ESE,112,1.0,4.9,30,0.00,,,-99.99,FreeWX 2.04,2013-01-24 11:17:00,
2013-01-24 04:27:00,34.2,3.7,29.94,ESE,105,2.0,5.4,27,0.00,,,-99.99,FreeWX 2.04,2013-01-24 11:27:00,
2013-01-24 04:37:00,35.4,2.3,29.94,ESE,103,1.0,6.7,24,0.00,,,-99.99,FreeWX 2.04,2013-01-24 11:37:00,
2013-01-24 04:47:00,36.7,5.0,29.94,ESE,118,2.0,6.3,26,0.00,,,-99.99,FreeWX 2.04,2013-01-24 11:47:00,
2013-01-24 04:57:00,36.5,7.3,29.94,SSE,154,1.0,5.8,29,0.00,,,-99.99,FreeWX 2.04,2013-01-24 11:57:00,
2013-01-24 05:07:00,37.4,8.1,29.94,North,-999,0.0,4.0,29,0.00,,,-99.99,FreeWX 2.04,2013-01-24 12:07:00,
2013-01-24 05:17:00,38.7,9.1,29.94,SE,142,1.0,6.3,29,0.00,,,-99.99,FreeWX 2.04,2013-01-24 12:17:00,
2013-01-24 05:27:00,38.7,9.1,29.97,SW,227,2.0,6.7,29,0.00,,,-99.99,FreeWX 2.04,2013-01-24 12:27:00,
2013-01-24 05:37:00,40.6,10.9,29.97,ENE,76,4.0,10.5,29,0.00,,,-99.99,FreeWX 2.04,2013-01-24 12:37:00,
2013-01-24 05:47:00,39.4,10.6,29.97,SW,220,5.0,11.0,30,0.00,,,-99.99,FreeWX 2.04,2013-01-24 12:47:00,
2013-01-24 05:57:00,39.0,10.9,29.97,SSW,204,5.0,11.0,31,0.00,,,-99.99,FreeWX 2.04,2013-01-24 12:57:00,
2013-01-24 06:07:00,38.7,12.0,29.97,South,189,5.0,10.5,33,0.00,,,-99.99,FreeWX 2.04,2013-01-24 13:07:00,
2013-01-24 06:17:00,38.5,11.8,29.97,SSE,162,6.0,11.0,33,0.00,,,-99.99,FreeWX 2.04,2013-01-24 13:17:00,
2013-01-24 06:27:00,38.7,10.6,29.97,SSW,192,2.0,10.1,31,0.00,,,-99.99,FreeWX 2.04,2013-01-24 13:27:00,
2013-01-24 06:37:00,37.8,12.0,29.97,North,-999,0.0,3.1,34,0.00,,,-99.99,FreeWX 2.04,2013-01-24 13:37:00,
2013-01-24 06:47:00,37.9,11.5,29.97,SW,218,2.0,8.3,33,0.00,,,-99.99,FreeWX 2.04,2013-01-24 13:47:00,
2013-01-24 06:57:00,37.2,14.0,29.97,SSW,208,4.0,11.2,38,0.00,,,-99.99,FreeWX 2.04,2013-01-24 13:57:00,
2013-01-24 07:07:00,36.7,14.7,29.97,SW,231,5.0,12.5,40,0.00,,,-99.99,FreeWX 2.04,2013-01-24 14:07:00,
2013-01-24 07:17:00,35.6,15.3,29.97,SSE,161,2.0,6.7,43,0.00,,,-99.99,FreeWX 2.04,2013-01-24 14:17:00,
2013-01-24 07:27:00,35.6,15.3,29.97,East,96,2.0,6.7,43,0.00,,,-99.99,FreeWX 2.04,2013-01-24 14:27:00,
2013-01-24 07:37:00,35.8,14.9,30.00,NE,39,3.0,6.3,42,0.00,,,-99.99,FreeWX 2.04,2013-01-24 14:37:00,
2013-01-24 07:47:00,36.0,14.5,30.00,East,99,1.0,5.4,41,0.00,,,-99.99,FreeWX 2.04,2013-01-24 14:47:00,
2013-01-24 07:57:00,35.6,14.7,30.00,North,-999,0.0,4.9,42,0.00,,,-99.99,FreeWX 2.04,2013-01-24 14:57:00,
2013-01-24 08:07:00,35.6,13.6,30.00,North,-999,0.0,4.0,40,0.00,,,-99.99,FreeWX 2.04,2013-01-24 15:07:00,
2013-01-24 08:17:00,35.2,14.0,30.00,SW,236,4.0,12.1,41,0.00,,,-99.99,FreeWX 2.04,2013-01-24 15:17:00,
2013-01-24 08:27:00,34.9,14.7,30.00,SSW,204,1.0,8.7,43,0.00,,,-99.99,FreeWX 2.04,2013-01-24 15:27:00,
2013-01-24 08:37:00,34.3,15.3,30.00,North,-999,0.0,5.4,45,0.00,,,-99.99,FreeWX 2.04,2013-01-24 15:37:00,
2013-01-24 08:47:00,34.0,17.2,30.00,North,-999,0.0,4.5,50,0.00,,,-99.99,FreeWX 2.04,2013-01-24 15:47:00,
2013-01-24 08:57:00,33.3,18.5,30.00,North,-999,0.0,4.5,54,0.00,,,-99.99,FreeWX 2.04,2013-01-24 15:57:00,
2013-01-24 09:07:00,33.1,20.3,30.00,ENE,57,2.0,4.5,59,0.00,,,-99.99,FreeWX 2.04,2013-01-24 16:07:00,
2013-01-24 09:17:00,33.3,18.9,30.00,East,79,2.0,7.8,55,0.00,,,-99.99,FreeWX 2.04,2013-01-24 16:17:00,
2013-01-24 09:27:00,33.6,18.3,30.00,ESE,115,2.0,6.3,53,0.00,,,-99.99,FreeWX 2.04,2013-01-24 16:27:00,
2013-01-24 09:37:00,33.8,18.1,30.00,North,-999,0.0,4.5,52,0.00,,,-99.99,FreeWX 2.04,2013-01-24 16:37:00,
2013-01-24 09:47:00,33.6,18.0,30.00,North,-999,0.0,5.8,52,0.00,,,-99.99,FreeWX 2.04,2013-01-24 16:47:00,
2013-01-24 09:57:00,33.3,17.1,30.00,SE,137,2.0,5.4,51,0.00,,,-99.99,FreeWX 2.04,2013-01-24 16:57:00,
2013-01-24 10:07:00,34.0,18.1,30.00,North,-999,0.0,0.0,52,0.00,,,-99.99,FreeWX 2.04,2013-01-24 17:07:00,
2013-01-24 10:17:00,34.3,18.5,30.00,North,-999,0.0,0.0,52,0.00,,,-99.99,FreeWX 2.04,2013-01-24 17:17:00,
2013-01-24 10:27:00,34.3,18.1,30.00,North,-999,0.0,3.6,51,0.00,,,-99.99,FreeWX 2.04,2013-01-24 17:27:00,
2013-01-24 10:37:00,34.5,19.2,30.03,SE,137,2.0,6.7,53,0.00,,,-99.99,FreeWX 2.04,2013-01-24 17:37:00,
2013-01-24 10:47:00,34.7,19.4,30.03,East,81,2.0,4.9,53,0.00,,,-99.99,FreeWX 2.04,2013-01-24 17:47:00,
2013-01-24 10:57:00,35.6,18.9,30.03,East,84,1.0,4.5,50,0.00,,,-99.99,FreeWX 2.04,2013-01-24 17:57:00,
2013-01-24 11:07:00,36.3,17.1,30.03,North,-999,0.0,0.0,45,0.00,,,-99.99,FreeWX 2.04,2013-01-24 18:07:00,
2013-01-24 11:17:00,36.9,16.5,30.03,North,-999,0.0,4.5,43,0.00,,,-99.99,FreeWX 2.04,2013-01-24 18:17:00,
2013-01-24 11:27:00,36.3,16.0,30.00,NNW,340,2.0,5.4,43,0.00,,,-99.99,FreeWX 2.04,2013-01-24 18:27:00,
2013-01-24 11:37:00,35.8,16.0,30.00,North,356,2.0,7.8,44,0.00,,,-99.99,FreeWX 2.04,2013-01-24 18:37:00,
2013-01-24 11:47:00,35.2,16.5,30.00,West,281,3.0,6.7,46,0.00,,,-99.99,FreeWX 2.04,2013-01-24 18:47:00,
2013-01-24 11:57:00,34.3,18.1,30.00,NNW,345,3.0,7.8,51,0.00,,,-99.99,FreeWX 2.04,2013-01-24 18:57:00,
2013-01-24 12:07:00,33.4,19.0,30.00,NNW,342,6.0,9.2,55,0.00,,,-99.99,FreeWX 2.04,2013-01-24 19:07:00,
2013-01-24 12:17:00,33.1,20.7,30.00,NNW,329,7.0,10.5,60,0.00,,,-99.99,FreeWX 2.04,2013-01-24 19:17:00,
2013-01-24 12:27:00,32.9,21.7,30.00,NNW,331,6.0,8.7,63,0.00,,,-99.99,FreeWX 2.04,2013-01-24 19:27:00,
2013-01-24 12:37:00,33.3,22.1,30.00,NNW,348,6.0,8.3,63,0.00,,,-99.99,FreeWX 2.04,2013-01-24 19:37:00,
2013-01-24 12:47:00,34.0,20.3,30.00,North,351,2.0,6.9,57,0.00,,,-99.99,FreeWX 2.04,2013-01-24 19:47:00,
2013-01-24 12:57:00,34.5,18.7,30.00,North,-999,0.0,4.9,52,0.00,,,-99.99,FreeWX 2.04,2013-01-24 19:57:00,
2013-01-24 13:07:00,34.3,18.5,30.03,NNW,328,3.0,6.3,52,0.00,,,-99.99,FreeWX 2.04,2013-01-24 20:07:00,
2013-01-24 13:17:00,34.3,18.1,30.03,NNE,17,4.0,7.4,51,0.00,,,-99.99,FreeWX 2.04,2013-01-24 20:17:00,
2013-01-24 13:27:00,33.8,18.1,30.03,NNW,344,4.0,6.9,52,0.00,,,-99.99,FreeWX 2.04,2013-01-24 20:27:00,
2013-01-24 13:37:00,33.6,17.4,30.03,NNW,342,5.0,6.9,51,0.00,,,-99.99,FreeWX 2.04,2013-01-24 20:37:00,
2013-01-24 13:47:00,33.8,18.1,30.03,NNW,341,3.0,5.8,52,0.00,,,-99.99,FreeWX 2.04,2013-01-24 20:47:00,
2013-01-24 13:57:00,33.6,18.0,30.00,NNW,344,3.0,6.7,52,0.00,,,-99.99,FreeWX 2.04,2013-01-24 20:57:00,
2013-01-24 14:07:00,32.9,18.9,30.03,North,352,3.0,5.8,56,0.00,,,-99.99,FreeWX 2.04,2013-01-24 21:07:00,
2013-01-24 14:17:00,33.3,19.8,30.03,NNE,19,1.0,5.4,57,0.00,,,-99.99,FreeWX 2.04,2013-01-24 21:17:00,
2013-01-24 14:27:00,34.3,19.4,30.00,NNE,24,1.0,5.4,54,0.00,,,-99.99,FreeWX 2.04,2013-01-24 21:27:00,
2013-01-24 14:37:00,35.4,18.7,30.00,South,183,1.0,5.4,50,0.00,,,-99.99,FreeWX 2.04,2013-01-24 21:37:00,
2013-01-24 14:47:00,34.9,18.1,30.00,North,-999,0.0,5.4,50,0.00,,,-99.99,FreeWX 2.04,2013-01-24 21:47:00,
2013-01-24 14:57:00,35.1,17.4,30.03,NW,317,1.0,5.4,48,0.00,,,-99.99,FreeWX 2.04,2013-01-24 21:57:00,
2013-01-24 15:07:00,35.2,16.5,30.03,NE,44,4.0,11.0,46,0.00,,,-99.99,FreeWX 2.04,2013-01-24 22:07:00,
2013-01-24 15:17:00,35.1,16.9,30.03,North,-999,0.0,5.4,47,0.00,,,-99.99,FreeWX 2.04,2013-01-24 22:17:00,
2013-01-24 15:28:00,35.2,17.6,30.03,North,-999,0.0,0.0,48,0.00,,,-99.99,FreeWX 2.04,2013-01-24 22:28:00,
2013-01-24 15:38:00,34.5,18.3,30.03,North,-999,0.0,0.0,51,0.00,,,-99.99,FreeWX 2.04,2013-01-24 22:38:00,
2013-01-24 15:48:00,34.5,18.3,30.03,North,-999,0.0,0.0,51,0.00,,,-99.99,FreeWX 2.04,2013-01-24 22:48:00,
2013-01-24 15:58:00,34.5,17.8,30.03,North,-999,0.0,0.0,50,0.00,,,-99.99,FreeWX 2.04,2013-01-24 22:58:00,
2013-01-24 16:08:00,34.9,17.2,30.03,North,-999,0.0,4.5,48,0.00,,,-99.99,FreeWX 2.04,2013-01-24 23:08:00,
2013-01-24 16:18:00,34.9,18.1,30.03,North,-999,0.0,3.6,50,0.00,,,-99.99,FreeWX 2.04,2013-01-24 23:18:00,
2013-01-24 16:28:00,34.5,17.8,30.03,North,-999,0.0,0.0,50,0.00,,,-99.99,FreeWX 2.04,2013-01-24 23:28:00,
2013-01-24 16:38:00,34.5,18.3,30.03,North,-999,0.0,0.0,51,0.00,,,-99.99,FreeWX 2.04,2013-01-24 23:38:00,
2013-01-24 16:48:00,34.2,18.3,30.03,North,-999,0.0,4.0,52,0.00,,,-99.99,FreeWX 2.04,2013-01-24 23:48:00,
2013-01-24 16:58:00,34.2,18.3,30.03,North,-999,0.0,4.5,52,0.00,,,-99.99,FreeWX 2.04,2013-01-24 23:58:00,
2013-01-24 17:08:00,33.8,18.5,30.03,North,-999,0.0,3.1,53,0.00,,,-99.99,FreeWX 2.04,2013-01-25 00:08:00,
2013-01-24 17:18:00,33.8,18.5,30.03,North,-999,0.0,0.0,53,0.00,,,-99.99,FreeWX 2.04,2013-01-25 00:18:00,
2013-01-24 17:28:00,33.6,18.9,30.03,North,-999,0.0,0.0,54,0.00,,,-99.99,FreeWX 2.04,2013-01-25 00:28:00,
2013-01-24 17:38:00,33.4,19.4,30.06,NNE,18,1.0,4.5,56,0.00,,,-99.99,FreeWX 2.04,2013-01-25 00:38:00,
2013-01-24 17:48:00,33.3,19.8,30.06,North,-999,0.0,2.7,57,0.00,,,-99.99,FreeWX 2.04,2013-01-25 00:48:00,
2013-01-24 17:58:00,33.3,19.8,30.03,North,-999,0.0,0.0,57,0.00,,,-99.99,FreeWX 2.04,2013-01-25 00:58:00,
2013-01-24 18:08:00,33.4,19.0,30.03,North,-999,0.0,5.4,55,0.00,,,-99.99,FreeWX 2.04,2013-01-25 01:08:00,
2013-01-24 18:18:00,33.6,18.3,30.03,ENE,61,1.0,5.4,53,0.00,,,-99.99,FreeWX 2.04,2013-01-25 01:18:00,
2013-01-24 18:28:00,33.8,18.1,30.06,North,-999,0.0,3.1,52,0.00,,,-99.99,FreeWX 2.04,2013-01-25 01:28:00,
2013-01-24 18:38:00,33.6,18.0,30.06,North,-999,0.0,3.6,52,0.00,,,-99.99,FreeWX 2.04,2013-01-25 01:38:00,
2013-01-24 18:48:00,33.6,18.0,30.06,North,-999,0.0,4.0,52,0.00,,,-99.99,FreeWX 2.04,2013-01-25 01:48:00,
2013-01-24 18:58:00,33.6,18.3,30.06,North,-999,0.0,3.6,53,0.00,,,-99.99,FreeWX 2.04,2013-01-25 01:58:00,
2013-01-24 19:08:00,33.6,18.0,30.06,North,-999,0.0,0.0,52,0.00,,,-99.99,FreeWX 2.04,2013-01-25 02:08:00,
2013-01-24 19:18:00,33.4,18.1,30.06,North,-999,0.0,4.9,53,0.00,,,-99.99,FreeWX 2.04,2013-01-25 02:18:00,
2013-01-24 19:28:00,33.1,19.0,30.06,North,355,4.0,6.3,56,0.00,,,-99.99,FreeWX 2.04,2013-01-25 02:28:00,
2013-01-24 19:38:00,32.5,19.8,30.06,North,351,4.0,6.3,59,0.00,,,-99.99,FreeWX 2.04,2013-01-25 02:38:00,
2013-01-24 19:48:00,32.7,19.6,30.06,North,352,4.0,6.3,58,0.00,,,-99.99,FreeWX 2.04,2013-01-25 02:48:00,
2013-01-24 19:58:00,32.7,19.6,30.06,North,-999,0.0,4.9,58,0.00,,,-99.99,FreeWX 2.04,2013-01-25 02:58:00,
2013-01-24 20:08:00,32.7,19.6,30.06,North,2,1.0,5.4,58,0.00,,,-99.99,FreeWX 2.04,2013-01-25 03:08:00,
2013-01-24 20:18:00,32.7,19.2,30.06,ENE,57,1.0,4.9,57,0.00,,,-99.99,FreeWX 2.04,2013-01-25 03:18:00,
2013-01-24 20:28:00,32.9,18.5,30.06,NE,44,4.0,6.3,55,0.00,,,-99.99,FreeWX 2.04,2013-01-25 03:28:00,
2013-01-24 20:38:00,32.9,18.5,30.06,ENE,66,3.0,6.9,55,0.00,,,-99.99,FreeWX 2.04,2013-01-25 03:38:00,
2013-01-24 20:48:00,32.9,18.5,30.06,North,-999,0.0,5.4,55,0.00,,,-99.99,FreeWX 2.04,2013-01-25 03:48:00,
2013-01-24 20:58:00,32.7,18.9,30.06,North,-999,0.0,0.0,56,0.00,,,-99.99,FreeWX 2.04,2013-01-25 03:58:00,
2013-01-24 21:08:00,32.4,18.9,30.06,SE,138,1.0,4.9,57,0.00,,,-99.99,FreeWX 2.04,2013-01-25 04:08:00,
2013-01-24 21:18:00,32.4,19.2,30.06,East,87,3.0,5.8,58,0.00,,,-99.99,FreeWX 2.04,2013-01-25 04:18:00,
2013-01-24 21:28:00,32.5,18.1,30.09,ENE,69,2.0,4.5,55,0.00,,,-99.99,FreeWX 2.04,2013-01-25 04:28:00,
2013-01-24 21:38:00,32.7,17.4,30.09,North,-999,0.0,2.7,53,0.00,,,-99.99,FreeWX 2.04,2013-01-25 04:38:00,
2013-01-24 21:48:00,32.2,17.4,30.09,North,-999,0.0,0.0,54,0.00,,,-99.99,FreeWX 2.04,2013-01-25 04:48:00,
2013-01-24 21:58:00,32.2,17.8,30.09,ESE,118,1.0,4.5,55,0.00,,,-99.99,FreeWX 2.04,2013-01-25 04:58:00,
2013-01-24 22:08:00,32.0,17.6,30.09,North,-999,0.0,4.5,55,0.00,,,-99.99,FreeWX 2.04,2013-01-25 05:08:00,
2013-01-24 22:18:00,32.0,17.6,30.09,ESE,108,3.0,4.9,55,0.00,,,-99.99,FreeWX 2.04,2013-01-25 05:18:00,
2013-01-24 22:28:00,32.0,17.2,30.09,North,-999,0.0,4.0,54,0.00,,,-99.99,FreeWX 2.04,2013-01-25 05:28:00,
2013-01-24 22:38:00,32.0,17.2,30.09,East,96,2.0,4.9,54,0.00,,,-99.99,FreeWX 2.04,2013-01-25 05:38:00,
2013-01-24 22:48:00,32.0,17.2,30.09,East,79,1.0,4.9,54,0.00,,,-99.99,FreeWX 2.04,2013-01-25 05:48:00,
2013-01-24 22:58:00,32.2,17.4,30.09,ESE,108,3.0,6.3,54,0.00,,,-99.99,FreeWX 2.04,2013-01-25 05:58:00,
2013-01-24 23:08:00,32.2,17.1,30.09,ESE,113,4.0,6.9,53,0.00,,,-99.99,FreeWX 2.04,2013-01-25 06:08:00,
2013-01-24 23:18:00,32.2,17.1,30.09,ESE,109,4.0,6.9,53,0.00,,,-99.99,FreeWX 2.04,2013-01-25 06:18:00,
2013-01-24 23:28:00,32.2,17.1,30.09,SE,124,4.0,7.4,53,0.00,,,-99.99,FreeWX 2.04,2013-01-25 06:28:00,
2013-01-24 23:38:00,32.4,17.2,30.09,ESE,109,4.0,6.7,53,0.00,,,-99.99,FreeWX 2.04,2013-01-25 06:38:00,
2013-01-24 23:48:00,32.4,16.7,30.09,ESE,107,2.0,4.9,52,0.00,,,-99.99,FreeWX 2.04,2013-01-25 06:48:00,
2013-01-24 23:58:00,32.7,17.1,30.09,SE,126,3.0,6.3,52,0.00,,,-99.99,FreeWX 2.04,2013-01-25 06:58:00,